sensor_id;sensor_type;location;lat;lon;timestamp;P1;durP1;ratioP1;P2;durP2;ratioP2
45392;SDS011;31129;44.810;10.334;2022-10-22T00:00:04;157.23;;;71.75;;
45392;SDS011;31129;44.810;10.334;2022-10-22T00:02:31;144.98;;;69.32;;
45392;SDS011;31129;44.810;10.334;2022-10-22T00:04:57;137.23;;;68.47;;
45392;SDS011;31129;44.810;10.334;2022-10-22T00:07:22;128.55;;;65.63;;
45392;SDS011;31129;44.810;10.334;2022-10-22T00:09:48;124.88;;;67.00;;
45392;SDS011;31129;44.810;10.334;2022-10-22T00:12:14;118.32;;;59.90;;
45392;SDS011;31129;44.810;10.334;2022-10-22T00:14:42;125.13;;;61.65;;
45392;SDS011;31129;44.810;10.334;2022-10-22T00:17:08;109.35;;;57.65;;
45392;SDS011;31129;44.810;10.334;2022-10-22T00:19:34;113.55;;;58.05;;
45392;SDS011;31129;44.810;10.334;2022-10-22T00:21:59;95.95;;;53.92;;
45392;SDS011;31129;44.810;10.334;2022-10-22T00:24:25;101.18;;;56.45;;
45392;SDS011;31129;44.810;10.334;2022-10-22T00:26:50;102.72;;;55.15;;
45392;SDS011;31129;44.810;10.334;2022-10-22T00:29:16;98.65;;;54.05;;
45392;SDS011;31129;44.810;10.334;2022-10-22T00:31:45;101.78;;;52.55;;
45392;SDS011;31129;44.810;10.334;2022-10-22T00:34:18;93.43;;;52.05;;
45392;SDS011;31129;44.810;10.334;2022-10-22T00:36:45;93.15;;;52.88;;
45392;SDS011;31129;44.810;10.334;2022-10-22T00:39:15;92.38;;;49.53;;
45392;SDS011;31129;44.810;10.334;2022-10-22T00:41:43;85.60;;;50.28;;
45392;SDS011;31129;44.810;10.334;2022-10-22T00:47:13;85.72;;;47.60;;
45392;SDS011;31129;44.810;10.334;2022-10-22T00:49:40;88.10;;;49.70;;
45392;SDS011;31129;44.810;10.334;2022-10-22T00:52:06;77.28;;;46.35;;
45392;SDS011;31129;44.810;10.334;2022-10-22T00:54:32;87.13;;;47.75;;
45392;SDS011;31129;44.810;10.334;2022-10-22T00:56:58;85.35;;;48.10;;
45392;SDS011;31129;44.810;10.334;2022-10-22T00:59:24;81.93;;;48.38;;
45392;SDS011;31129;44.810;10.334;2022-10-22T01:01:50;71.65;;;45.75;;
45392;SDS011;31129;44.810;10.334;2022-10-22T01:04:16;75.82;;;45.83;;
45392;SDS011;31129;44.810;10.334;2022-10-22T01:06:43;74.75;;;46.30;;
45392;SDS011;31129;44.810;10.334;2022-10-22T01:09:17;81.53;;;46.10;;
45392;SDS011;31129;44.810;10.334;2022-10-22T01:17:14;68.53;;;43.75;;
45392;SDS011;31129;44.810;10.334;2022-10-22T01:22:33;68.35;;;43.70;;
45392;SDS011;31129;44.810;10.334;2022-10-22T01:25:09;70.82;;;42.95;;
45392;SDS011;31129;44.810;10.334;2022-10-22T01:30:24;64.53;;;41.65;;
45392;SDS011;31129;44.810;10.334;2022-10-22T01:32:51;68.45;;;42.60;;
45392;SDS011;31129;44.810;10.334;2022-10-22T01:35:24;76.97;;;50.65;;
45392;SDS011;31129;44.810;10.334;2022-10-22T01:37:56;67.47;;;41.60;;
45392;SDS011;31129;44.810;10.334;2022-10-22T01:40:24;64.75;;;41.25;;
45392;SDS011;31129;44.810;10.334;2022-10-22T01:42:55;69.25;;;42.38;;
45392;SDS011;31129;44.810;10.334;2022-10-22T01:45:22;65.97;;;40.60;;
45392;SDS011;31129;44.810;10.334;2022-10-22T01:55:54;61.40;;;40.97;;
45392;SDS011;31129;44.810;10.334;2022-10-22T01:58:43;60.85;;;40.70;;
45392;SDS011;31129;44.810;10.334;2022-10-22T02:06:18;57.67;;;37.60;;
45392;SDS011;31129;44.810;10.334;2022-10-22T02:08:47;63.17;;;37.88;;
45392;SDS011;31129;44.810;10.334;2022-10-22T02:11:14;63.43;;;38.80;;
45392;SDS011;31129;44.810;10.334;2022-10-22T02:13:45;64.85;;;39.65;;
45392;SDS011;31129;44.810;10.334;2022-10-22T02:16:15;62.28;;;39.50;;
45392;SDS011;31129;44.810;10.334;2022-10-22T02:18:51;65.93;;;39.35;;
45392;SDS011;31129;44.810;10.334;2022-10-22T02:21:20;63.65;;;40.53;;
45392;SDS011;31129;44.810;10.334;2022-10-22T02:23:46;60.58;;;39.08;;
45392;SDS011;31129;44.810;10.334;2022-10-22T02:31:35;56.75;;;37.67;;
45392;SDS011;31129;44.810;10.334;2022-10-22T02:34:04;59.15;;;39.20;;
45392;SDS011;31129;44.810;10.334;2022-10-22T02:36:34;52.95;;;36.70;;
45392;SDS011;31129;44.810;10.334;2022-10-22T02:39:03;59.20;;;38.25;;
45392;SDS011;31129;44.810;10.334;2022-10-22T02:41:30;63.22;;;38.17;;
45392;SDS011;31129;44.810;10.334;2022-10-22T02:43:56;57.80;;;38.10;;
45392;SDS011;31129;44.810;10.334;2022-10-22T02:46:22;53.92;;;37.08;;
45392;SDS011;31129;44.810;10.334;2022-10-22T02:48:48;57.72;;;38.28;;
45392;SDS011;31129;44.810;10.334;2022-10-22T02:51:14;57.92;;;37.97;;
45392;SDS011;31129;44.810;10.334;2022-10-22T02:53:39;54.13;;;37.58;;
45392;SDS011;31129;44.810;10.334;2022-10-22T02:56:05;59.53;;;37.78;;
45392;SDS011;31129;44.810;10.334;2022-10-22T02:58:31;59.70;;;37.83;;
45392;SDS011;31129;44.810;10.334;2022-10-22T03:00:57;58.03;;;37.65;;
45392;SDS011;31129;44.810;10.334;2022-10-22T03:03:22;57.55;;;37.15;;
45392;SDS011;31129;44.810;10.334;2022-10-22T03:05:49;64.18;;;37.20;;
45392;SDS011;31129;44.810;10.334;2022-10-22T03:08:15;59.70;;;38.80;;
45392;SDS011;31129;44.810;10.334;2022-10-22T03:10:40;54.78;;;37.38;;
45392;SDS011;31129;44.810;10.334;2022-10-22T03:13:06;54.08;;;37.05;;
45392;SDS011;31129;44.810;10.334;2022-10-22T03:15:31;59.85;;;36.67;;
45392;SDS011;31129;44.810;10.334;2022-10-22T03:17:57;54.53;;;36.60;;
45392;SDS011;31129;44.810;10.334;2022-10-22T03:20:22;58.38;;;36.22;;
45392;SDS011;31129;44.810;10.334;2022-10-22T03:22:48;59.00;;;37.75;;
45392;SDS011;31129;44.810;10.334;2022-10-22T03:25:15;55.45;;;37.22;;
45392;SDS011;31129;44.810;10.334;2022-10-22T03:27:43;56.92;;;36.60;;
45392;SDS011;31129;44.810;10.334;2022-10-22T03:30:10;53.60;;;38.30;;
45392;SDS011;31129;44.810;10.334;2022-10-22T03:32:36;58.47;;;36.42;;
45392;SDS011;31129;44.810;10.334;2022-10-22T03:35:01;59.95;;;36.78;;
45392;SDS011;31129;44.810;10.334;2022-10-22T03:37:27;55.05;;;35.85;;
45392;SDS011;31129;44.810;10.334;2022-10-22T03:39:52;60.78;;;37.05;;
45392;SDS011;31129;44.810;10.334;2022-10-22T03:42:19;55.33;;;36.25;;
45392;SDS011;31129;44.810;10.334;2022-10-22T03:44:44;53.40;;;36.50;;
45392;SDS011;31129;44.810;10.334;2022-10-22T03:47:10;55.92;;;37.53;;
45392;SDS011;31129;44.810;10.334;2022-10-22T03:49:36;53.03;;;37.28;;
45392;SDS011;31129;44.810;10.334;2022-10-22T03:52:08;57.65;;;37.20;;
45392;SDS011;31129;44.810;10.334;2022-10-22T03:54:35;59.47;;;36.05;;
45392;SDS011;31129;44.810;10.334;2022-10-22T03:57:01;55.83;;;37.13;;
45392;SDS011;31129;44.810;10.334;2022-10-22T03:59:27;52.13;;;36.22;;
45392;SDS011;31129;44.810;10.334;2022-10-22T04:01:53;48.90;;;35.00;;
45392;SDS011;31129;44.810;10.334;2022-10-22T04:04:19;57.80;;;35.97;;
45392;SDS011;31129;44.810;10.334;2022-10-22T04:06:44;53.90;;;35.22;;
45392;SDS011;31129;44.810;10.334;2022-10-22T04:09:10;58.28;;;37.03;;
45392;SDS011;31129;44.810;10.334;2022-10-22T04:11:35;59.58;;;36.78;;
45392;SDS011;31129;44.810;10.334;2022-10-22T04:14:01;55.80;;;36.33;;
45392;SDS011;31129;44.810;10.334;2022-10-22T04:16:26;59.95;;;36.47;;
45392;SDS011;31129;44.810;10.334;2022-10-22T04:18:57;57.92;;;35.92;;
45392;SDS011;31129;44.810;10.334;2022-10-22T04:21:24;61.75;;;34.58;;
45392;SDS011;31129;44.810;10.334;2022-10-22T04:23:50;56.20;;;34.40;;
45392;SDS011;31129;44.810;10.334;2022-10-22T04:26:17;49.35;;;34.40;;
45392;SDS011;31129;44.810;10.334;2022-10-22T04:28:44;52.53;;;35.28;;
45392;SDS011;31129;44.810;10.334;2022-10-22T04:31:15;53.78;;;36.22;;
45392;SDS011;31129;44.810;10.334;2022-10-22T04:33:42;49.58;;;33.88;;
45392;SDS011;31129;44.810;10.334;2022-10-22T04:36:15;54.33;;;34.80;;
45392;SDS011;31129;44.810;10.334;2022-10-22T04:38:42;59.15;;;35.42;;
45392;SDS011;31129;44.810;10.334;2022-10-22T04:41:10;59.03;;;37.47;;
45392;SDS011;31129;44.810;10.334;2022-10-22T04:43:36;60.53;;;37.20;;
45392;SDS011;31129;44.810;10.334;2022-10-22T04:46:01;53.60;;;35.55;;
45392;SDS011;31129;44.810;10.334;2022-10-22T04:48:27;64.95;;;37.33;;
45392;SDS011;31129;44.810;10.334;2022-10-22T04:50:52;57.22;;;37.33;;
45392;SDS011;31129;44.810;10.334;2022-10-22T04:53:18;59.72;;;39.25;;
45392;SDS011;31129;44.810;10.334;2022-10-22T04:55:44;54.88;;;38.58;;
45392;SDS011;31129;44.810;10.334;2022-10-22T04:58:10;62.10;;;40.03;;
45392;SDS011;31129;44.810;10.334;2022-10-22T05:00:35;57.15;;;38.85;;
45392;SDS011;31129;44.810;10.334;2022-10-22T05:03:00;57.92;;;39.28;;
45392;SDS011;31129;44.810;10.334;2022-10-22T05:05:26;63.25;;;38.60;;
45392;SDS011;31129;44.810;10.334;2022-10-22T05:07:51;60.10;;;38.22;;
45392;SDS011;31129;44.810;10.334;2022-10-22T05:10:17;57.70;;;37.70;;
45392;SDS011;31129;44.810;10.334;2022-10-22T05:12:42;56.20;;;38.17;;
45392;SDS011;31129;44.810;10.334;2022-10-22T05:15:08;59.97;;;36.28;;
45392;SDS011;31129;44.810;10.334;2022-10-22T05:17:34;56.03;;;38.45;;
45392;SDS011;31129;44.810;10.334;2022-10-22T05:20:01;56.50;;;36.47;;
45392;SDS011;31129;44.810;10.334;2022-10-22T05:22:28;59.42;;;37.25;;
45392;SDS011;31129;44.810;10.334;2022-10-22T05:24:53;53.42;;;35.33;;
45392;SDS011;31129;44.810;10.334;2022-10-22T05:27:18;59.35;;;36.97;;
45392;SDS011;31129;44.810;10.334;2022-10-22T05:29:44;55.05;;;38.63;;
45392;SDS011;31129;44.810;10.334;2022-10-22T05:32:09;58.17;;;37.95;;
45392;SDS011;31129;44.810;10.334;2022-10-22T05:34:35;54.88;;;37.70;;
45392;SDS011;31129;44.810;10.334;2022-10-22T05:37:00;55.50;;;37.85;;
45392;SDS011;31129;44.810;10.334;2022-10-22T05:39:26;58.13;;;38.65;;
45392;SDS011;31129;44.810;10.334;2022-10-22T05:41:52;58.97;;;37.53;;
45392;SDS011;31129;44.810;10.334;2022-10-22T05:44:18;55.33;;;38.25;;
45392;SDS011;31129;44.810;10.334;2022-10-22T05:46:43;64.72;;;37.88;;
45392;SDS011;31129;44.810;10.334;2022-10-22T05:49:10;56.55;;;35.47;;
45392;SDS011;31129;44.810;10.334;2022-10-22T05:51:37;58.58;;;37.80;;
45392;SDS011;31129;44.810;10.334;2022-10-22T05:54:04;52.90;;;36.70;;
45392;SDS011;31129;44.810;10.334;2022-10-22T05:56:31;59.50;;;36.92;;
45392;SDS011;31129;44.810;10.334;2022-10-22T05:58:58;61.17;;;36.85;;
45392;SDS011;31129;44.810;10.334;2022-10-22T06:01:25;58.65;;;36.33;;
45392;SDS011;31129;44.810;10.334;2022-10-22T06:03:53;60.00;;;36.13;;
45392;SDS011;31129;44.810;10.334;2022-10-22T06:06:20;63.53;;;36.00;;
45392;SDS011;31129;44.810;10.334;2022-10-22T06:08:47;57.90;;;36.65;;
45392;SDS011;31129;44.810;10.334;2022-10-22T06:11:15;59.60;;;37.05;;
45392;SDS011;31129;44.810;10.334;2022-10-22T06:13:42;56.38;;;36.38;;
45392;SDS011;31129;44.810;10.334;2022-10-22T06:16:11;56.90;;;36.25;;
45392;SDS011;31129;44.810;10.334;2022-10-22T06:18:37;58.67;;;36.63;;
45392;SDS011;31129;44.810;10.334;2022-10-22T06:21:07;53.75;;;37.13;;
45392;SDS011;31129;44.810;10.334;2022-10-22T06:23:34;55.00;;;38.22;;
45392;SDS011;31129;44.810;10.334;2022-10-22T06:26:00;51.60;;;37.20;;
45392;SDS011;31129;44.810;10.334;2022-10-22T06:28:26;52.72;;;36.53;;
45392;SDS011;31129;44.810;10.334;2022-10-22T06:30:52;62.17;;;38.00;;
45392;SDS011;31129;44.810;10.334;2022-10-22T06:33:18;55.88;;;35.50;;
45392;SDS011;31129;44.810;10.334;2022-10-22T06:35:43;55.80;;;37.03;;
45392;SDS011;31129;44.810;10.334;2022-10-22T06:38:09;61.50;;;38.83;;
45392;SDS011;31129;44.810;10.334;2022-10-22T06:40:35;59.33;;;36.60;;
45392;SDS011;31129;44.810;10.334;2022-10-22T06:43:01;62.53;;;37.10;;
45392;SDS011;31129;44.810;10.334;2022-10-22T06:45:27;53.67;;;36.70;;
45392;SDS011;31129;44.810;10.334;2022-10-22T06:47:52;65.30;;;38.33;;
45392;SDS011;31129;44.810;10.334;2022-10-22T06:50:22;54.05;;;35.78;;
45392;SDS011;31129;44.810;10.334;2022-10-22T06:52:48;54.17;;;34.97;;
45392;SDS011;31129;44.810;10.334;2022-10-22T06:55:13;59.47;;;36.15;;
45392;SDS011;31129;44.810;10.334;2022-10-22T06:57:39;54.20;;;35.75;;
45392;SDS011;31129;44.810;10.334;2022-10-22T07:00:05;51.75;;;35.30;;
45392;SDS011;31129;44.810;10.334;2022-10-22T07:02:31;54.17;;;35.33;;
45392;SDS011;31129;44.810;10.334;2022-10-22T07:04:57;59.53;;;35.15;;
45392;SDS011;31129;44.810;10.334;2022-10-22T07:07:22;50.88;;;35.33;;
45392;SDS011;31129;44.810;10.334;2022-10-22T07:09:48;52.67;;;35.83;;
45392;SDS011;31129;44.810;10.334;2022-10-22T07:12:14;46.45;;;33.75;;
45392;SDS011;31129;44.810;10.334;2022-10-22T07:14:40;52.67;;;34.33;;
45392;SDS011;31129;44.810;10.334;2022-10-22T07:17:06;52.63;;;33.35;;
45392;SDS011;31129;44.810;10.334;2022-10-22T07:19:31;51.38;;;31.90;;
45392;SDS011;31129;44.810;10.334;2022-10-22T07:21:57;50.17;;;31.60;;
45392;SDS011;31129;44.810;10.334;2022-10-22T07:24:23;49.40;;;33.55;;
45392;SDS011;31129;44.810;10.334;2022-10-22T07:26:48;54.60;;;32.92;;
45392;SDS011;31129;44.810;10.334;2022-10-22T07:29:14;54.80;;;31.23;;
45392;SDS011;31129;44.810;10.334;2022-10-22T07:31:40;53.42;;;30.63;;
45392;SDS011;31129;44.810;10.334;2022-10-22T07:34:05;45.30;;;28.70;;
45392;SDS011;31129;44.810;10.334;2022-10-22T07:36:31;44.58;;;26.27;;
45392;SDS011;31129;44.810;10.334;2022-10-22T07:38:57;39.20;;;25.08;;
45392;SDS011;31129;44.810;10.334;2022-10-22T07:41:24;42.53;;;25.35;;
45392;SDS011;31129;44.810;10.334;2022-10-22T07:43:50;34.70;;;24.85;;
45392;SDS011;31129;44.810;10.334;2022-10-22T07:46:16;35.63;;;23.05;;
45392;SDS011;31129;44.810;10.334;2022-10-22T07:48:42;37.95;;;23.20;;
45392;SDS011;31129;44.810;10.334;2022-10-22T07:51:07;35.00;;;22.73;;
45392;SDS011;31129;44.810;10.334;2022-10-22T07:53:33;37.10;;;25.02;;
45392;SDS011;31129;44.810;10.334;2022-10-22T07:55:59;42.50;;;25.77;;
45392;SDS011;31129;44.810;10.334;2022-10-22T07:58:24;52.83;;;30.00;;
45392;SDS011;31129;44.810;10.334;2022-10-22T08:00:50;50.17;;;31.00;;
45392;SDS011;31129;44.810;10.334;2022-10-22T08:03:19;50.50;;;33.78;;
45392;SDS011;31129;44.810;10.334;2022-10-22T08:05:45;58.42;;;33.28;;
45392;SDS011;31129;44.810;10.334;2022-10-22T08:08:12;61.75;;;34.55;;
45392;SDS011;31129;44.810;10.334;2022-10-22T08:10:38;54.60;;;34.90;;
45392;SDS011;31129;44.810;10.334;2022-10-22T08:13:04;58.08;;;35.38;;
45392;SDS011;31129;44.810;10.334;2022-10-22T08:15:29;52.88;;;35.15;;
45392;SDS011;31129;44.810;10.334;2022-10-22T08:17:55;56.42;;;35.33;;
45392;SDS011;31129;44.810;10.334;2022-10-22T08:20:20;62.88;;;34.70;;
45392;SDS011;31129;44.810;10.334;2022-10-22T08:22:46;55.20;;;34.28;;
45392;SDS011;31129;44.810;10.334;2022-10-22T08:25:11;60.58;;;34.00;;
45392;SDS011;31129;44.810;10.334;2022-10-22T08:27:37;54.25;;;34.17;;
45392;SDS011;31129;44.810;10.334;2022-10-22T08:30:03;54.13;;;33.53;;
45392;SDS011;31129;44.810;10.334;2022-10-22T08:32:30;54.50;;;33.95;;
45392;SDS011;31129;44.810;10.334;2022-10-22T08:34:56;58.15;;;35.13;;
45392;SDS011;31129;44.810;10.334;2022-10-22T08:37:21;51.80;;;32.38;;
45392;SDS011;31129;44.810;10.334;2022-10-22T08:39:47;53.35;;;32.90;;
45392;SDS011;31129;44.810;10.334;2022-10-22T08:45:31;48.47;;;30.33;;
45392;SDS011;31129;44.810;10.334;2022-10-22T08:50:45;51.70;;;31.42;;
45392;SDS011;31129;44.810;10.334;2022-10-22T08:53:17;51.72;;;30.25;;
45392;SDS011;31129;44.810;10.334;2022-10-22T08:55:45;51.35;;;31.50;;
45392;SDS011;31129;44.810;10.334;2022-10-22T09:00:43;59.53;;;33.35;;
45392;SDS011;31129;44.810;10.334;2022-10-22T09:08:36;58.22;;;32.03;;
45392;SDS011;31129;44.810;10.334;2022-10-22T09:13:52;50.35;;;31.75;;
45392;SDS011;31129;44.810;10.334;2022-10-22T09:16:29;51.28;;;32.47;;
45392;SDS011;31129;44.810;10.334;2022-10-22T09:24:26;57.03;;;31.35;;
45392;SDS011;31129;44.810;10.334;2022-10-22T09:27:01;46.42;;;30.92;;
45392;SDS011;31129;44.810;10.334;2022-10-22T09:29:33;49.38;;;29.95;;
45392;SDS011;31129;44.810;10.334;2022-10-22T09:31:58;49.92;;;30.75;;
45392;SDS011;31129;44.810;10.334;2022-10-22T09:34:24;50.65;;;31.45;;
45392;SDS011;31129;44.810;10.334;2022-10-22T09:36:56;42.38;;;30.55;;
45392;SDS011;31129;44.810;10.334;2022-10-22T09:42:00;45.83;;;28.45;;
45392;SDS011;31129;44.810;10.334;2022-10-22T09:44:26;40.33;;;26.15;;
45392;SDS011;31129;44.810;10.334;2022-10-22T09:46:51;44.38;;;27.63;;
45392;SDS011;31129;44.810;10.334;2022-10-22T09:49:18;47.67;;;28.77;;
45392;SDS011;31129;44.810;10.334;2022-10-22T09:51:53;45.70;;;27.92;;
45392;SDS011;31129;44.810;10.334;2022-10-22T09:54:24;48.80;;;29.38;;
45392;SDS011;31129;44.810;10.334;2022-10-22T09:56:52;45.90;;;28.48;;
45392;SDS011;31129;44.810;10.334;2022-10-22T09:59:24;47.22;;;27.60;;
45392;SDS011;31129;44.810;10.334;2022-10-22T10:02:08;47.00;;;26.58;;
45392;SDS011;31129;44.810;10.334;2022-10-22T10:04:46;40.42;;;26.17;;
45392;SDS011;31129;44.810;10.334;2022-10-22T10:07:20;48.13;;;26.77;;
45392;SDS011;31129;44.810;10.334;2022-10-22T10:09:48;41.00;;;26.65;;
45392;SDS011;31129;44.810;10.334;2022-10-22T10:14:59;45.80;;;26.50;;
45392;SDS011;31129;44.810;10.334;2022-10-22T10:26:08;42.45;;;27.02;;
45392;SDS011;31129;44.810;10.334;2022-10-22T10:37:08;37.70;;;24.50;;
45392;SDS011;31129;44.810;10.334;2022-10-22T10:51:06;39.58;;;24.30;;
45392;SDS011;31129;44.810;10.334;2022-10-22T10:53:56;43.03;;;22.08;;
45392;SDS011;31129;44.810;10.334;2022-10-22T11:07:55;42.17;;;24.58;;
45392;SDS011;31129;44.810;10.334;2022-10-22T11:10:29;41.40;;;23.65;;
45392;SDS011;31129;44.810;10.334;2022-10-22T11:13:10;42.70;;;23.13;;
45392;SDS011;31129;44.810;10.334;2022-10-22T11:15:38;42.03;;;24.60;;
45392;SDS011;31129;44.810;10.334;2022-10-22T11:18:09;44.75;;;24.65;;
45392;SDS011;31129;44.810;10.334;2022-10-22T11:21:08;50.78;;;23.90;;
45392;SDS011;31129;44.810;10.334;2022-10-22T11:26:21;44.97;;;23.50;;
45392;SDS011;31129;44.810;10.334;2022-10-22T11:29:11;42.78;;;23.77;;
45392;SDS011;31129;44.810;10.334;2022-10-22T11:31:39;42.15;;;23.13;;
45392;SDS011;31129;44.810;10.334;2022-10-22T11:34:13;45.35;;;22.58;;
45392;SDS011;31129;44.810;10.334;2022-10-22T11:36:39;40.92;;;22.70;;
45392;SDS011;31129;44.810;10.334;2022-10-22T11:39:06;51.67;;;23.42;;
45392;SDS011;31129;44.810;10.334;2022-10-22T11:41:51;37.30;;;22.20;;
45392;SDS011;31129;44.810;10.334;2022-10-22T11:44:21;42.08;;;21.88;;
45392;SDS011;31129;44.810;10.334;2022-10-22T11:49:21;40.00;;;21.67;;
45392;SDS011;31129;44.810;10.334;2022-10-22T11:51:48;36.05;;;22.35;;
45392;SDS011;31129;44.810;10.334;2022-10-22T12:10:28;39.28;;;22.02;;
45392;SDS011;31129;44.810;10.334;2022-10-22T12:13:09;39.20;;;21.80;;
45392;SDS011;31129;44.810;10.334;2022-10-22T12:15:47;44.13;;;22.98;;
45392;SDS011;31129;44.810;10.334;2022-10-22T12:18:16;44.17;;;22.13;;
45392;SDS011;31129;44.810;10.334;2022-10-22T12:20:42;45.17;;;22.20;;
45392;SDS011;31129;44.810;10.334;2022-10-22T12:23:09;46.92;;;21.15;;
45392;SDS011;31129;44.810;10.334;2022-10-22T12:25:36;38.10;;;21.33;;
45392;SDS011;31129;44.810;10.334;2022-10-22T12:28:02;39.78;;;19.10;;
45392;SDS011;31129;44.810;10.334;2022-10-22T12:30:29;45.47;;;21.23;;
45392;SDS011;31129;44.810;10.334;2022-10-22T12:32:59;36.25;;;20.27;;
45392;SDS011;31129;44.810;10.334;2022-10-22T12:35:27;48.22;;;20.85;;
45392;SDS011;31129;44.810;10.334;2022-10-22T12:37:55;48.90;;;23.17;;
45392;SDS011;31129;44.810;10.334;2022-10-22T12:42:50;44.85;;;21.35;;
45392;SDS011;31129;44.810;10.334;2022-10-22T12:45:18;43.70;;;20.08;;
45392;SDS011;31129;44.810;10.334;2022-10-22T12:47:47;40.15;;;20.60;;
45392;SDS011;31129;44.810;10.334;2022-10-22T12:50:16;36.88;;;20.13;;
45392;SDS011;31129;44.810;10.334;2022-10-22T12:52:44;46.33;;;20.27;;
45392;SDS011;31129;44.810;10.334;2022-10-22T12:55:17;44.53;;;22.00;;
45392;SDS011;31129;44.810;10.334;2022-10-22T12:57:50;46.15;;;22.08;;
45392;SDS011;31129;44.810;10.334;2022-10-22T13:00:26;43.78;;;21.67;;
45392;SDS011;31129;44.810;10.334;2022-10-22T13:02:56;40.20;;;21.67;;
45392;SDS011;31129;44.810;10.334;2022-10-22T13:05:25;42.65;;;21.50;;
45392;SDS011;31129;44.810;10.334;2022-10-22T13:08:10;40.75;;;21.35;;
45392;SDS011;31129;44.810;10.334;2022-10-22T13:10:41;41.10;;;21.13;;
45392;SDS011;31129;44.810;10.334;2022-10-22T13:13:30;44.17;;;21.60;;
45392;SDS011;31129;44.810;10.334;2022-10-22T13:18:37;44.65;;;22.77;;
45392;SDS011;31129;44.810;10.334;2022-10-22T13:21:02;45.40;;;22.13;;
45392;SDS011;31129;44.810;10.334;2022-10-22T13:23:31;43.70;;;23.90;;
45392;SDS011;31129;44.810;10.334;2022-10-22T13:28:40;46.60;;;24.23;;
45392;SDS011;31129;44.810;10.334;2022-10-22T13:31:17;45.85;;;24.52;;
45392;SDS011;31129;44.810;10.334;2022-10-22T13:33:44;44.00;;;24.83;;
45392;SDS011;31129;44.810;10.334;2022-10-22T13:36:14;46.13;;;23.67;;
45392;SDS011;31129;44.810;10.334;2022-10-22T13:38:41;43.78;;;22.75;;
45392;SDS011;31129;44.810;10.334;2022-10-22T13:41:20;45.63;;;24.33;;
45392;SDS011;31129;44.810;10.334;2022-10-22T13:43:50;42.58;;;23.08;;
45392;SDS011;31129;44.810;10.334;2022-10-22T13:46:17;40.72;;;23.20;;
45392;SDS011;31129;44.810;10.334;2022-10-22T13:48:43;43.67;;;22.70;;
45392;SDS011;31129;44.810;10.334;2022-10-22T13:51:14;45.95;;;23.52;;
45392;SDS011;31129;44.810;10.334;2022-10-22T13:53:41;40.83;;;23.55;;
45392;SDS011;31129;44.810;10.334;2022-10-22T13:56:16;48.45;;;24.25;;
45392;SDS011;31129;44.810;10.334;2022-10-22T13:58:43;40.58;;;22.50;;
45392;SDS011;31129;44.810;10.334;2022-10-22T14:01:20;38.20;;;22.45;;
45392;SDS011;31129;44.810;10.334;2022-10-22T14:03:46;47.45;;;24.70;;
45392;SDS011;31129;44.810;10.334;2022-10-22T14:08:40;50.10;;;23.70;;
45392;SDS011;31129;44.810;10.334;2022-10-22T14:11:09;50.80;;;22.67;;
45392;SDS011;31129;44.810;10.334;2022-10-22T14:13:36;44.00;;;23.60;;
45392;SDS011;31129;44.810;10.334;2022-10-22T14:16:02;45.95;;;23.30;;
45392;SDS011;31129;44.810;10.334;2022-10-22T14:21:02;39.60;;;23.30;;
45392;SDS011;31129;44.810;10.334;2022-10-22T14:23:31;45.03;;;23.50;;
45392;SDS011;31129;44.810;10.334;2022-10-22T14:25:59;42.97;;;24.25;;
45392;SDS011;31129;44.810;10.334;2022-10-22T14:28:24;45.35;;;24.25;;
45392;SDS011;31129;44.810;10.334;2022-10-22T14:30:51;43.38;;;23.40;;
45392;SDS011;31129;44.810;10.334;2022-10-22T14:33:21;43.58;;;24.50;;
45392;SDS011;31129;44.810;10.334;2022-10-22T14:35:49;41.88;;;24.48;;
45392;SDS011;31129;44.810;10.334;2022-10-22T14:38:15;47.88;;;24.60;;
45392;SDS011;31129;44.810;10.334;2022-10-22T14:40:41;50.60;;;24.75;;
45392;SDS011;31129;44.810;10.334;2022-10-22T14:45:49;43.53;;;24.52;;
45392;SDS011;31129;44.810;10.334;2022-10-22T14:48:15;47.10;;;24.50;;
45392;SDS011;31129;44.810;10.334;2022-10-22T14:50:42;36.30;;;23.08;;
45392;SDS011;31129;44.810;10.334;2022-10-22T14:53:08;40.40;;;24.13;;
45392;SDS011;31129;44.810;10.334;2022-10-22T14:55:33;41.08;;;22.65;;
45392;SDS011;31129;44.810;10.334;2022-10-22T14:57:59;44.17;;;23.50;;
45392;SDS011;31129;44.810;10.334;2022-10-22T15:00:24;40.13;;;23.77;;
45392;SDS011;31129;44.810;10.334;2022-10-22T15:02:50;36.40;;;22.77;;
45392;SDS011;31129;44.810;10.334;2022-10-22T15:05:16;40.17;;;22.10;;
45392;SDS011;31129;44.810;10.334;2022-10-22T15:07:42;34.83;;;20.08;;
45392;SDS011;31129;44.810;10.334;2022-10-22T15:10:08;29.00;;;17.00;;
45392;SDS011;31129;44.810;10.334;2022-10-22T15:12:34;35.40;;;16.77;;
45392;SDS011;31129;44.810;10.334;2022-10-22T15:15:01;36.67;;;15.90;;
45392;SDS011;31129;44.810;10.334;2022-10-22T15:17:26;30.15;;;13.63;;
45392;SDS011;31129;44.810;10.334;2022-10-22T15:19:55;22.73;;;11.98;;
45392;SDS011;31129;44.810;10.334;2022-10-22T15:22:23;29.60;;;13.65;;
45392;SDS011;31129;44.810;10.334;2022-10-22T15:24:49;25.48;;;13.63;;
45392;SDS011;31129;44.810;10.334;2022-10-22T15:27:16;29.50;;;13.88;;
45392;SDS011;31129;44.810;10.334;2022-10-22T15:29:41;30.90;;;13.68;;
45392;SDS011;31129;44.810;10.334;2022-10-22T15:32:07;32.17;;;13.80;;
45392;SDS011;31129;44.810;10.334;2022-10-22T15:34:39;23.30;;;13.10;;
45392;SDS011;31129;44.810;10.334;2022-10-22T15:37:09;29.08;;;12.27;;
45392;SDS011;31129;44.810;10.334;2022-10-22T15:39:38;31.20;;;13.02;;
45392;SDS011;31129;44.810;10.334;2022-10-22T15:42:05;22.70;;;11.52;;
45392;SDS011;31129;44.810;10.334;2022-10-22T15:44:31;30.30;;;11.10;;
45392;SDS011;31129;44.810;10.334;2022-10-22T15:46:57;27.45;;;11.88;;
45392;SDS011;31129;44.810;10.334;2022-10-22T15:49:24;31.33;;;11.88;;
45392;SDS011;31129;44.810;10.334;2022-10-22T15:51:51;22.58;;;11.02;;
45392;SDS011;31129;44.810;10.334;2022-10-22T15:54:18;25.23;;;11.73;;
45392;SDS011;31129;44.810;10.334;2022-10-22T15:56:48;27.80;;;11.93;;
45392;SDS011;31129;44.810;10.334;2022-10-22T15:59:14;28.48;;;12.45;;
45392;SDS011;31129;44.810;10.334;2022-10-22T16:01:41;27.73;;;11.93;;
45392;SDS011;31129;44.810;10.334;2022-10-22T16:04:07;28.15;;;12.75;;
45392;SDS011;31129;44.810;10.334;2022-10-22T16:06:37;28.88;;;12.00;;
45392;SDS011;31129;44.810;10.334;2022-10-22T16:09:08;25.95;;;12.95;;
45392;SDS011;31129;44.810;10.334;2022-10-22T16:11:37;23.63;;;11.70;;
45392;SDS011;31129;44.810;10.334;2022-10-22T16:14:06;27.38;;;12.35;;
45392;SDS011;31129;44.810;10.334;2022-10-22T16:16:33;35.22;;;12.25;;
45392;SDS011;31129;44.810;10.334;2022-10-22T16:19:00;38.08;;;12.43;;
45392;SDS011;31129;44.810;10.334;2022-10-22T16:21:26;27.75;;;12.50;;
45392;SDS011;31129;44.810;10.334;2022-10-22T16:23:52;28.67;;;12.43;;
45392;SDS011;31129;44.810;10.334;2022-10-22T16:26:21;35.25;;;12.65;;
45392;SDS011;31129;44.810;10.334;2022-10-22T16:28:47;34.00;;;12.38;;